Trotters, North Dakota
Current Conditions -  °F | °C
As of 1:15 AM on Thursday 27 Nov 2014 (Local Time) from K20U Reporting Station
Overcast Overcast  
Wind Chill:   Ceiling: 5500
Heat Index: 16°   Visibility: 10mi
Dew Point: 14°   Wind: 9mph
Humidity: 93%   Direction: 140°SE
Pressure: 30.21"   Gusts: NA
Location:  47.0809°N, 103.878°W
Report Text: K20U 270815Z AUTO 14008KT 10SM FEW046 BKN055 OVC065 M09/M10 A3021 RMK AO2
Loading
Personal Weather Stations






























Interactive Weather Map New forecast layout! Learn more

10-Day Weather Forecast

Advertisements
Track Severe Weather on mobile